Decoded Metar for KAHN (ATHENS in GA, USA) (IATA:AHN) | Meteo·Mobile Aviation Weather
aviador You're here:

KAHN Decoded Metar

ATHENS in GA, USA
Report Time2019-01-19 06:51:00
UTC Time2019-01-19 07:00:03
Flight Rules mvfr MVFR
Wind080° at 07 kt
W.Decomp.*RWY 09: 6.9 kt HW 0.9 kt LCW
RWY 02: 3.2 kt HW 6.2 kt RCW
W.Rank080° ranks 3
Current wind is above 080° avg. (6.1)
Visibility6437 m
Phenomena:Mist
Clouds:Scattered 015 Hf
Broken 037 Hf
Ceiling3,700 ft
Temp08°C (ISA -5)
Dew Point08°C (100% RH)
AAT5.0°C
QNH1018 hPa
Density Alt131 ft
Elevation801 ft
Report Wrong Elevation
Raw Report
METAR KAHN 190651Z AUTO 08007KT 4SM BR SCT015 BKN037 08/08 A3005 RMK
AO2 SLP178 T00830078=

Extra information for KAHN:More info

Metar Taf Metar & Taf Last 4 Metars F.Rules Stats Wind Profile Meteogram Temp Stats Airport Information Weather charts Add Link Nearby VenuesMetar ALERT Operation Metar Decoded Social comments

AIRNAV info for KAHN